sensor_id;sensor_type;location;lat;lon;timestamp;temperature;humidity
47368;DHT22;34646;47.964;7.982;2023-07-20T00:00:46;22.90;84.20
47368;DHT22;34646;47.964;7.982;2023-07-20T00:06:47;22.90;84.10
47368;DHT22;34646;47.964;7.982;2023-07-20T00:12:47;23.10;84.20
47368;DHT22;34646;47.964;7.982;2023-07-20T00:18:49;23.20;84.30
47368;DHT22;34646;47.964;7.982;2023-07-20T00:24:49;23.10;84.20
47368;DHT22;34646;47.964;7.982;2023-07-20T00:30:50;23.10;84.10
47368;DHT22;34646;47.964;7.982;2023-07-20T00:36:51;23.30;84.20
47368;DHT22;34646;47.964;7.982;2023-07-20T00:42:51;23.30;84.00
47368;DHT22;34646;47.964;7.982;2023-07-20T00:48:57;23.10;83.90
47368;DHT22;34646;47.964;7.982;2023-07-20T00:54:59;23.30;83.90
47368;DHT22;34646;47.964;7.982;2023-07-20T01:00:59;23.20;83.70
47368;DHT22;34646;47.964;7.982;2023-07-20T01:07:12;22.70;83.20
47368;DHT22;34646;47.964;7.982;2023-07-20T01:13:15;22.80;83.50
47368;DHT22;34646;47.964;7.982;2023-07-20T01:19:18;22.80;83.40
47368;DHT22;34646;47.964;7.982;2023-07-20T01:25:33;22.70;82.60
47368;DHT22;34646;47.964;7.982;2023-07-20T01:31:37;23.00;83.40
47368;DHT22;34646;47.964;7.982;2023-07-20T01:37:39;22.90;82.50
47368;DHT22;34646;47.964;7.982;2023-07-20T01:43:39;23.10;83.20
47368;DHT22;34646;47.964;7.982;2023-07-20T01:49:40;22.90;83.20
47368;DHT22;34646;47.964;7.982;2023-07-20T02:01:42;23.00;83.20
47368;DHT22;34646;47.964;7.982;2023-07-20T02:07:43;22.60;82.50
47368;DHT22;34646;47.964;7.982;2023-07-20T02:13:43;22.70;83.10
47368;DHT22;34646;47.964;7.982;2023-07-20T02:19:44;23.30;82.70
47368;DHT22;34646;47.964;7.982;2023-07-20T02:25:45;23.30;83.30
47368;DHT22;34646;47.964;7.982;2023-07-20T02:31:45;22.60;82.90
47368;DHT22;34646;47.964;7.982;2023-07-20T02:37:46;23.30;82.70
47368;DHT22;34646;47.964;7.982;2023-07-20T02:43:46;23.10;76.60
47368;DHT22;34646;47.964;7.982;2023-07-20T02:49:47;22.80;82.80
47368;DHT22;34646;47.964;7.982;2023-07-20T02:55:48;23.10;82.90
47368;DHT22;34646;47.964;7.982;2023-07-20T03:01:48;22.90;82.60
47368;DHT22;34646;47.964;7.982;2023-07-20T03:07:49;23.20;82.20
47368;DHT22;34646;47.964;7.982;2023-07-20T03:13:50;22.80;82.30
47368;DHT22;34646;47.964;7.982;2023-07-20T03:19:51;22.70;82.20
47368;DHT22;34646;47.964;7.982;2023-07-20T03:25:51;22.80;81.40
47368;DHT22;34646;47.964;7.982;2023-07-20T03:37:56;22.80;72.70
47368;DHT22;34646;47.964;7.982;2023-07-20T03:43:57;22.30;80.10
47368;DHT22;34646;47.964;7.982;2023-07-20T03:49:58;21.70;81.00
47368;DHT22;34646;47.964;7.982;2023-07-20T03:55:59;21.50;82.10
47368;DHT22;34646;47.964;7.982;2023-07-20T04:01:59;21.50;82.30
47368;DHT22;34646;47.964;7.982;2023-07-20T04:08:00;21.40;83.30
47368;DHT22;34646;47.964;7.982;2023-07-20T04:14:01;21.20;82.80
47368;DHT22;34646;47.964;7.982;2023-07-20T04:20:02;21.10;82.00
47368;DHT22;34646;47.964;7.982;2023-07-20T04:26:03;21.10;83.60
47368;DHT22;34646;47.964;7.982;2023-07-20T04:32:04;21.50;83.00
47368;DHT22;34646;47.964;7.982;2023-07-20T04:38:04;20.90;83.50
47368;DHT22;34646;47.964;7.982;2023-07-20T04:50:07;20.70;83.20
47368;DHT22;34646;47.964;7.982;2023-07-20T04:56:08;20.90;83.70
47368;DHT22;34646;47.964;7.982;2023-07-20T05:02:08;21.10;84.40
47368;DHT22;34646;47.964;7.982;2023-07-20T05:08:09;21.10;83.00
47368;DHT22;34646;47.964;7.982;2023-07-20T05:20:12;21.70;82.90
47368;DHT22;34646;47.964;7.982;2023-07-20T05:26:13;21.50;81.90
47368;DHT22;34646;47.964;7.982;2023-07-20T05:32:14;21.40;82.40
47368;DHT22;34646;47.964;7.982;2023-07-20T05:38:15;21.20;85.60
47368;DHT22;34646;47.964;7.982;2023-07-20T05:44:16;21.30;86.20
47368;DHT22;34646;47.964;7.982;2023-07-20T05:50:17;21.20;85.80
47368;DHT22;34646;47.964;7.982;2023-07-20T05:56:17;21.70;85.50
47368;DHT22;34646;47.964;7.982;2023-07-20T06:02:18;21.70;84.70
47368;DHT22;34646;47.964;7.982;2023-07-20T06:08:19;21.70;84.60
47368;DHT22;34646;47.964;7.982;2023-07-20T06:14:19;22.20;84.00
47368;DHT22;34646;47.964;7.982;2023-07-20T06:20:21;22.50;83.80
47368;DHT22;34646;47.964;7.982;2023-07-20T06:26:22;22.20;83.60
47368;DHT22;34646;47.964;7.982;2023-07-20T06:32:23;22.10;84.00
47368;DHT22;34646;47.964;7.982;2023-07-20T06:38:24;22.20;83.60
47368;DHT22;34646;47.964;7.982;2023-07-20T06:44:24;22.30;83.90
47368;DHT22;34646;47.964;7.982;2023-07-20T06:50:25;21.90;83.60
47368;DHT22;34646;47.964;7.982;2023-07-20T06:56:25;22.30;83.30
47368;DHT22;34646;47.964;7.982;2023-07-20T07:02:26;22.30;83.80
47368;DHT22;34646;47.964;7.982;2023-07-20T07:08:27;22.30;83.70
47368;DHT22;34646;47.964;7.982;2023-07-20T07:14:27;22.30;84.20
47368;DHT22;34646;47.964;7.982;2023-07-20T07:20:28;22.40;83.80
47368;DHT22;34646;47.964;7.982;2023-07-20T07:26:28;22.10;84.00
47368;DHT22;34646;47.964;7.982;2023-07-20T07:32:29;21.90;84.40
47368;DHT22;34646;47.964;7.982;2023-07-20T07:38:30;22.20;83.90
47368;DHT22;34646;47.964;7.982;2023-07-20T07:44:30;22.20;83.90
47368;DHT22;34646;47.964;7.982;2023-07-20T07:50:32;22.20;84.50
47368;DHT22;34646;47.964;7.982;2023-07-20T07:56:32;22.40;83.90
47368;DHT22;34646;47.964;7.982;2023-07-20T08:02:33;22.20;83.90
47368;DHT22;34646;47.964;7.982;2023-07-20T08:08:34;22.10;83.70
47368;DHT22;34646;47.964;7.982;2023-07-20T08:14:35;22.30;83.60
47368;DHT22;34646;47.964;7.982;2023-07-20T08:20:36;22.20;83.70
47368;DHT22;34646;47.964;7.982;2023-07-20T08:26:36;22.40;84.30
47368;DHT22;34646;47.964;7.982;2023-07-20T08:32:37;22.10;83.70
47368;DHT22;34646;47.964;7.982;2023-07-20T08:38:38;22.10;83.80
47368;DHT22;34646;47.964;7.982;2023-07-20T08:44:39;22.30;84.00
47368;DHT22;34646;47.964;7.982;2023-07-20T08:50:41;22.50;83.50
47368;DHT22;34646;47.964;7.982;2023-07-20T08:56:45;22.60;84.20
47368;DHT22;34646;47.964;7.982;2023-07-20T09:02:55;22.30;82.90
47368;DHT22;34646;47.964;7.982;2023-07-20T09:08:56;22.50;84.30
47368;DHT22;34646;47.964;7.982;2023-07-20T09:14:57;22.70;84.60
47368;DHT22;34646;47.964;7.982;2023-07-20T09:21:02;22.00;84.00
47368;DHT22;34646;47.964;7.982;2023-07-20T09:27:03;22.30;84.50
47368;DHT22;34646;47.964;7.982;2023-07-20T09:39:05;22.30;84.00
47368;DHT22;34646;47.964;7.982;2023-07-20T09:45:09;22.60;84.80
47368;DHT22;34646;47.964;7.982;2023-07-20T09:51:11;22.20;84.70
47368;DHT22;34646;47.964;7.982;2023-07-20T09:57:11;22.50;85.30
47368;DHT22;34646;47.964;7.982;2023-07-20T10:03:19;22.40;85.30
47368;DHT22;34646;47.964;7.982;2023-07-20T10:09:21;22.60;76.10
47368;DHT22;34646;47.964;7.982;2023-07-20T10:15:24;22.40;84.80
47368;DHT22;34646;47.964;7.982;2023-07-20T10:21:29;22.90;85.30
47368;DHT22;34646;47.964;7.982;2023-07-20T10:27:30;22.50;85.70
47368;DHT22;34646;47.964;7.982;2023-07-20T10:33:31;22.50;85.10
47368;DHT22;34646;47.964;7.982;2023-07-20T10:39:32;22.50;85.60
47368;DHT22;34646;47.964;7.982;2023-07-20T10:45:39;22.30;85.30
47368;DHT22;34646;47.964;7.982;2023-07-20T10:51:48;22.80;85.30
47368;DHT22;34646;47.964;7.982;2023-07-20T10:58:12;22.80;86.00
47368;DHT22;34646;47.964;7.982;2023-07-20T11:04:15;22.50;86.10
47368;DHT22;34646;47.964;7.982;2023-07-20T11:10:17;22.30;86.00
47368;DHT22;34646;47.964;7.982;2023-07-20T11:16:18;22.50;85.50
47368;DHT22;34646;47.964;7.982;2023-07-20T11:22:20;22.50;86.10
47368;DHT22;34646;47.964;7.982;2023-07-20T11:34:22;22.70;86.30
47368;DHT22;34646;47.964;7.982;2023-07-20T11:46:24;22.50;85.30
47368;DHT22;34646;47.964;7.982;2023-07-20T11:52:25;23.00;85.90
47368;DHT22;34646;47.964;7.982;2023-07-20T11:58:28;22.60;86.40
47368;DHT22;34646;47.964;7.982;2023-07-20T12:04:30;22.40;86.20
47368;DHT22;34646;47.964;7.982;2023-07-20T12:10:31;22.70;86.50
47368;DHT22;34646;47.964;7.982;2023-07-20T12:16:32;22.80;86.10
47368;DHT22;34646;47.964;7.982;2023-07-20T12:22:39;22.70;86.30
47368;DHT22;34646;47.964;7.982;2023-07-20T12:28:40;22.40;85.50
47368;DHT22;34646;47.964;7.982;2023-07-20T12:40:42;22.70;86.20
47368;DHT22;34646;47.964;7.982;2023-07-20T12:46:43;22.80;86.10
47368;DHT22;34646;47.964;7.982;2023-07-20T12:52:44;22.80;85.60
47368;DHT22;34646;47.964;7.982;2023-07-20T12:58:44;22.80;86.30
47368;DHT22;34646;47.964;7.982;2023-07-20T13:04:45;22.50;86.00
47368;DHT22;34646;47.964;7.982;2023-07-20T13:10:46;22.60;86.00
47368;DHT22;34646;47.964;7.982;2023-07-20T13:16:47;22.50;85.70
47368;DHT22;34646;47.964;7.982;2023-07-20T13:22:47;22.10;84.90
47368;DHT22;34646;47.964;7.982;2023-07-20T13:28:48;22.70;86.00
47368;DHT22;34646;47.964;7.982;2023-07-20T13:40:50;23.00;86.10
47368;DHT22;34646;47.964;7.982;2023-07-20T13:46:50;22.80;86.00
47368;DHT22;34646;47.964;7.982;2023-07-20T13:52:51;22.60;86.00
47368;DHT22;34646;47.964;7.982;2023-07-20T13:58:52;22.90;86.00
47368;DHT22;34646;47.964;7.982;2023-07-20T14:04:53;22.50;85.70
47368;DHT22;34646;47.964;7.982;2023-07-20T14:10:56;22.70;85.80
47368;DHT22;34646;47.964;7.982;2023-07-20T14:16:56;23.10;85.80
47368;DHT22;34646;47.964;7.982;2023-07-20T14:22:57;22.70;85.40
47368;DHT22;34646;47.964;7.982;2023-07-20T14:28:58;22.10;84.70
47368;DHT22;34646;47.964;7.982;2023-07-20T14:34:58;22.40;85.30
47368;DHT22;34646;47.964;7.982;2023-07-20T14:40:59;22.80;85.50
47368;DHT22;34646;47.964;7.982;2023-07-20T14:47:00;22.60;85.30
47368;DHT22;34646;47.964;7.982;2023-07-20T14:53:01;22.70;84.80
47368;DHT22;34646;47.964;7.982;2023-07-20T15:05:03;22.80;85.40
47368;DHT22;34646;47.964;7.982;2023-07-20T15:11:03;22.90;85.40
47368;DHT22;34646;47.964;7.982;2023-07-20T15:17:04;23.00;85.50
47368;DHT22;34646;47.964;7.982;2023-07-20T15:23:05;22.40;85.10
47368;DHT22;34646;47.964;7.982;2023-07-20T15:29:05;23.00;85.60
47368;DHT22;34646;47.964;7.982;2023-07-20T15:35:06;22.70;85.40
47368;DHT22;34646;47.964;7.982;2023-07-20T15:41:07;23.00;85.60
47368;DHT22;34646;47.964;7.982;2023-07-20T15:47:08;22.90;85.50
47368;DHT22;34646;47.964;7.982;2023-07-20T15:53:08;23.10;85.60
47368;DHT22;34646;47.964;7.982;2023-07-20T15:59:11;22.70;84.90
47368;DHT22;34646;47.964;7.982;2023-07-20T16:05:12;23.00;85.70
47368;DHT22;34646;47.964;7.982;2023-07-20T16:11:12;23.20;85.80
47368;DHT22;34646;47.964;7.982;2023-07-20T16:17:13;22.70;84.90
47368;DHT22;34646;47.964;7.982;2023-07-20T16:23:14;23.00;85.70
47368;DHT22;34646;47.964;7.982;2023-07-20T16:29:14;23.00;85.80
47368;DHT22;34646;47.964;7.982;2023-07-20T16:35:15;22.90;85.90
47368;DHT22;34646;47.964;7.982;2023-07-20T16:41:16;22.90;86.00
47368;DHT22;34646;47.964;7.982;2023-07-20T16:47:18;23.10;86.10
47368;DHT22;34646;47.964;7.982;2023-07-20T16:53:19;22.90;86.10
47368;DHT22;34646;47.964;7.982;2023-07-20T16:59:19;23.00;86.10
47368;DHT22;34646;47.964;7.982;2023-07-20T17:05:20;23.00;86.20
47368;DHT22;34646;47.964;7.982;2023-07-20T17:11:20;23.00;85.60
47368;DHT22;34646;47.964;7.982;2023-07-20T17:17:21;23.20;85.70
47368;DHT22;34646;47.964;7.982;2023-07-20T17:23:22;23.10;86.30
47368;DHT22;34646;47.964;7.982;2023-07-20T17:29:22;23.10;80.20
47368;DHT22;34646;47.964;7.982;2023-07-20T17:35:24;23.20;86.50
47368;DHT22;34646;47.964;7.982;2023-07-20T17:41:27;22.90;86.30
47368;DHT22;34646;47.964;7.982;2023-07-20T17:47:27;23.20;86.30
47368;DHT22;34646;47.964;7.982;2023-07-20T17:53:28;23.40;86.50
47368;DHT22;34646;47.964;7.982;2023-07-20T17:59:28;22.90;86.20
47368;DHT22;34646;47.964;7.982;2023-07-20T18:05:29;22.90;85.60
47368;DHT22;34646;47.964;7.982;2023-07-20T18:11:30;23.00;86.30
47368;DHT22;34646;47.964;7.982;2023-07-20T18:17:34;23.20;86.50
47368;DHT22;34646;47.964;7.982;2023-07-20T18:23:35;23.10;86.50
47368;DHT22;34646;47.964;7.982;2023-07-20T18:29:36;23.20;85.80
47368;DHT22;34646;47.964;7.982;2023-07-20T18:35:38;23.10;86.30
47368;DHT22;34646;47.964;7.982;2023-07-20T18:41:38;23.10;86.50
47368;DHT22;34646;47.964;7.982;2023-07-20T18:47:39;23.00;86.30
47368;DHT22;34646;47.964;7.982;2023-07-20T18:53:41;23.20;86.40
47368;DHT22;34646;47.964;7.982;2023-07-20T18:59:42;23.20;86.50
47368;DHT22;34646;47.964;7.982;2023-07-20T19:05:44;23.10;86.40
47368;DHT22;34646;47.964;7.982;2023-07-20T19:11:45;23.10;86.60
47368;DHT22;34646;47.964;7.982;2023-07-20T19:17:47;22.70;86.30
47368;DHT22;34646;47.964;7.982;2023-07-20T19:23:47;23.00;86.40
47368;DHT22;34646;47.964;7.982;2023-07-20T19:29:49;23.10;86.20
47368;DHT22;34646;47.964;7.982;2023-07-20T19:35:49;23.00;85.90
47368;DHT22;34646;47.964;7.982;2023-07-20T19:41:50;22.70;85.40
47368;DHT22;34646;47.964;7.982;2023-07-20T19:47:51;23.00;85.40
47368;DHT22;34646;47.964;7.982;2023-07-20T19:53:51;23.10;84.90
47368;DHT22;34646;47.964;7.982;2023-07-20T19:59:52;23.00;84.50
47368;DHT22;34646;47.964;7.982;2023-07-20T20:05:54;22.90;83.90
47368;DHT22;34646;47.964;7.982;2023-07-20T20:11:55;23.40;83.90
47368;DHT22;34646;47.964;7.982;2023-07-20T20:17:56;22.90;83.70
47368;DHT22;34646;47.964;7.982;2023-07-20T20:23:59;22.80;82.90
47368;DHT22;34646;47.964;7.982;2023-07-20T20:30:01;22.90;83.80
47368;DHT22;34646;47.964;7.982;2023-07-20T20:36:03;23.00;83.50
47368;DHT22;34646;47.964;7.982;2023-07-20T20:42:04;22.90;84.20
47368;DHT22;34646;47.964;7.982;2023-07-20T20:48:05;23.10;84.20
47368;DHT22;34646;47.964;7.982;2023-07-20T20:54:11;22.90;84.00
47368;DHT22;34646;47.964;7.982;2023-07-20T21:00:12;23.20;83.90
47368;DHT22;34646;47.964;7.982;2023-07-20T21:06:13;23.10;83.40
47368;DHT22;34646;47.964;7.982;2023-07-20T21:12:13;22.70;82.40
47368;DHT22;34646;47.964;7.982;2023-07-20T21:18:14;22.90;82.70
47368;DHT22;34646;47.964;7.982;2023-07-20T21:24:15;23.00;82.60
47368;DHT22;34646;47.964;7.982;2023-07-20T21:30:15;22.70;82.00
47368;DHT22;34646;47.964;7.982;2023-07-20T21:36:16;22.90;81.60
47368;DHT22;34646;47.964;7.982;2023-07-20T21:42:16;22.90;81.50
47368;DHT22;34646;47.964;7.982;2023-07-20T21:48:17;22.80;80.10
47368;DHT22;34646;47.964;7.982;2023-07-20T21:54:18;22.90;79.90
47368;DHT22;34646;47.964;7.982;2023-07-20T22:00:18;22.90;80.50
47368;DHT22;34646;47.964;7.982;2023-07-20T22:06:19;22.90;80.50
47368;DHT22;34646;47.964;7.982;2023-07-20T22:12:20;22.90;80.50
47368;DHT22;34646;47.964;7.982;2023-07-20T22:18:20;22.90;80.30
47368;DHT22;34646;47.964;7.982;2023-07-20T22:24:21;23.20;79.90
47368;DHT22;34646;47.964;7.982;2023-07-20T22:30:22;22.90;80.20
47368;DHT22;34646;47.964;7.982;2023-07-20T22:36:22;23.10;79.50
47368;DHT22;34646;47.964;7.982;2023-07-20T22:42:23;23.00;80.00
47368;DHT22;34646;47.964;7.982;2023-07-20T22:48:23;22.90;80.00
47368;DHT22;34646;47.964;7.982;2023-07-20T22:54:27;22.80;79.80
47368;DHT22;34646;47.964;7.982;2023-07-20T23:00:29;22.90;70.70
47368;DHT22;34646;47.964;7.982;2023-07-20T23:06:31;22.50;78.90
47368;DHT22;34646;47.964;7.982;2023-07-20T23:12:32;23.10;79.10
47368;DHT22;34646;47.964;7.982;2023-07-20T23:18:32;22.80;79.40
47368;DHT22;34646;47.964;7.982;2023-07-20T23:24:35;22.60;79.30
47368;DHT22;34646;47.964;7.982;2023-07-20T23:30:36;22.40;79.00
47368;DHT22;34646;47.964;7.982;2023-07-20T23:36:36;22.40;78.40
47368;DHT22;34646;47.964;7.982;2023-07-20T23:42:38;22.50;79.00
47368;DHT22;34646;47.964;7.982;2023-07-20T23:48:39;23.30;78.90
47368;DHT22;34646;47.964;7.982;2023-07-20T23:54:42;22.70;78.80
